Bouzas — EAPC — position and weather

sailwx.info

Track history (hours):
 
Tides and Currents Weather Stations Pressure Air Temp Water Temp Dewpoint Dewpoint Depression Visibility Wind Speed Wind Dir Waves Ship Positions

Bouzas

Last reported at 2015-Aug-04 09:31 UTC. Time now 2015-Aug-04 09:45 UTC.
Position N 28°09' W 015°24'.

Length 142 m; draft 5.4 m.

Type: Cargo ship. MMSI: 224029000.

Date/timePositionNaut miles runAvg speedWind from/ knotsBaromVisibWave heightAir tempDewpointWater temp
2015-Aug-04 09:31N 28°09' W 015°24'0 0.0
2015-Aug-04 08:31N 28°09' W 015°24'0 0.0
2015-Aug-04 07:31N 28°09' W 015°24'0 0.0
2015-Aug-04 06:31N 28°09' W 015°24'0 0.0
2015-Aug-04 05:31N 28°09' W 015°24'0 0.0
2015-Aug-04 04:31N 28°09' W 015°24'0 0.0
2015-Aug-04 03:31N 28°09' W 015°24'0 0.0
2015-Aug-04 02:22N 28°09' W 015°24'1 1.8
2015-Aug-04 01:33N 28°07' W 015°24'1212.1
2015-Aug-04 00:33N 28°16' W 015°34'1818.0
2015-Aug-03 23:33N 28°22' W 015°53'2017.6
2015-Aug-03 22:26N 28°29' W 016°14'1 0.5
2015-Aug-03 21:21N 28°29' W 016°15'0 0.0
2015-Aug-03 19:30N 28°29' W 016°15'0 0.0
2015-Aug-03 17:33N 28°29' W 016°15'2 2.5
2015-Aug-03 16:33N 28°28' W 016°12'1919.1
2015-Aug-03 15:33N 28°21' W 015°52'1919.0
2015-Aug-03 14:33N 28°15' W 015°32'8 8.3
2015-Aug-03 13:33N 28°09' W 015°25'0 0.0
2015-Aug-03 12:33N 28°09' W 015°25'0 0.0
2015-Aug-03 11:33N 28°09' W 015°25'0 0.0
2015-Aug-03 10:33N 28°09' W 015°25'0 0.0
2015-Aug-03 09:33N 28°09' W 015°25'0 0.3
2015-Aug-03 08:33N 28°09' W 015°25'1110.5
2015-Aug-03 07:33N 28°14' W 015°15'1918.7
2015-Aug-03 06:33N 28°28' W 014°60'1918.9
2015-Aug-03 05:33N 28°41' W 014°44'2018.7
2015-Aug-03 04:28N 28°55' W 014°28'1918.6
2015-Aug-03 03:26N 29°08' W 014°12'1718.9
2015-Aug-03 02:33N 29°20' W 013°58'2118.5
2015-Aug-03 01:25N 29°35' W 013°41'249370.7
2015-Aug-01 14:10N 31°39' E 034°32'0 0.0
2015-Aug-01 08:27N 31°39' E 034°32'1790458.4
2015-Aug-01 04:33N 37°16' W 000°60'1818.2
2015-Aug-01 03:33N 37°28' W 000°43'1818.1
2015-Aug-01 02:33N 37°41' W 000°28'1818.4
2015-Aug-01 01:33N 37°57' W 000°15'6218.2
2015-Jul-31 22:09N 38°49' E 000°27'6417.9
2015-Jul-31 18:33N 39°46' E 001°06'1817.8
2015-Jul-31 17:33N 40°01' E 001°18'169354.5
2015-Jul-30 10:30N 31°39' E 034°32'0 0.0
2015-Jul-30 09:33N 31°39' E 034°32'0 0.0
2015-Jul-30 08:33N 31°39' E 034°32'17528985.1
2015-Jul-30 08:22N 37°57' W 000°11'1417.7
2015-Jul-30 07:33N 37°45' W 000°21'17601266954.6
2015-Jul-30 07:33N 31°39' E 034°32'0 0.0
2015-Jul-30 06:34N 31°39' E 034°32'1770796598.2
2015-Jul-30 06:33N 37°31' W 000°35'1817.9
2015-Jul-30 05:33N 37°19' W 000°52'1783377660.0
2015-Jul-30 05:33N 31°39' E 034°32'0 0.0
2015-Jul-30 00:25N 31°39' E 034°32'0 0.0
2015-Jul-29 23:34N 31°39' E 034°32'0 0.0
2015-Jul-29 22:10N 31°39' E 034°32'0 0.0
2015-Jul-29 21:33N 31°39' E 034°32'0 0.0
2015-Jul-29 20:25N 31°39' E 034°32'0 0.0
2015-Jul-29 19:31N 31°39' E 034°32'0 0.0
2015-Jul-29 18:33N 31°39' E 034°32'0 0.0
2015-Jul-29 17:22N 31°39' E 034°32'0 0.0
2015-Jul-29 13:18N 31°39' E 034°32'0 0.0
2015-Jul-29 12:33N 31°39' E 034°32'0 0.0
2015-Jul-29 11:26N 31°39' E 034°32'0 0.0
2015-Jul-28 23:34N 31°39' E 034°32'0 0.0
2015-Jul-28 22:33N 31°39' E 034°32'0 0.0
2015-Jul-28 17:28N 31°39' E 034°32'0 0.0
2015-Jul-28 16:14N 31°39' E 034°32'0 0.0
2015-Jul-28 15:33N 31°39' E 034°32'0 0.0
2015-Jul-28 14:33N 31°39' E 034°32'0 0.0
2015-Jul-28 13:13N 31°39' E 034°32'24453338.8
2015-Jul-28 12:29N 30°45' W 013°05'4017.5
2015-Jul-28 10:12N 30°18' W 013°40'1217.3
2015-Jul-28 09:29N 30°10' W 013°51'1617.0
2015-Jul-28 08:33N 29°60' W 014°05'1716.7
2015-Jul-28 07:33N 29°49' W 014°20'1716.7
2015-Jul-28 06:33N 29°39' W 014°35'1716.8
2015-Jul-28 05:33N 29°28' W 014°49'1716.9
2015-Jul-28 04:31N 29°16' W 015°04'1617.1
2015-Jul-28 03:33N 29°05' W 015°19'1817.5
2015-Jul-28 02:33N 28°54' W 015°34'1817.6
2015-Jul-28 01:32N 28°42' W 015°49'1717.3
2015-Jul-28 00:33N 28°32' W 016°04'9 9.3
2015-Jul-27 23:32N 28°29' W 016°15'0 0.0
2015-Jul-27 22:32N 28°29' W 016°15'0 0.0
2015-Jul-27 21:31N 28°29' W 016°15'0 0.0
2015-Jul-27 20:33N 28°29' W 016°15'0 0.0
2015-Jul-27 19:27N 28°29' W 016°15'0 0.0
2015-Jul-27 18:32N 28°29' W 016°15'0 0.0
2015-Jul-27 17:31N 28°29' W 016°15'0 0.4
2015-Jul-27 16:33N 28°29' W 016°14'26438526.7
2015-Jul-27 16:15N 31°39' E 034°32'26303811.4
2015-Jul-27 15:33N 28°23' W 015°57'263048551.4
2015-Jul-27 15:30N 31°39' E 034°32'26152779.1
2015-Jul-27 14:33N 28°17' W 015°37'1515.1
2015-Jul-27 13:33N 28°08' W 015°23'2 1.9
2015-Jul-27 12:33N 28°09' W 015°25'0 0.0
2015-Jul-27 11:32N 28°09' W 015°25'21314.2
2015-Jul-26 20:28N 30°36' W 012°28'1719.0
2015-Jul-26 19:33N 30°49' W 012°13'2399798.8
2015-Jul-26 16:33N 31°39' E 034°32'0 0.0
2015-Jul-26 15:30N 31°39' E 034°32'2237375.6
2015-Jul-26 09:33N 33°01' W 009°34'38917.5
2015-Jul-25 11:18N 36°35' W 002°59'1216.8
2015-Jul-25 10:33N 36°32' W 002°44'18759108.5
2015-Jul-25 10:21N 31°39' E 034°32'  
Track history (hours):
 
Tides and Currents Weather Stations Pressure Air Temp Water Temp Dewpoint Dewpoint Depression Visibility Wind Speed Wind Dir Waves Ship Positions

Bouzas

Last reported at 2015-Aug-04 09:31 UTC. Time now 2015-Aug-04 09:45 UTC.
Position N 28°09' W 015°24'.

Length 142 m; draft 5.4 m.

Type: Cargo ship. MMSI: 224029000.

Date/timePositionNaut miles runAvg speedWind from/ knotsBaromVisibWave heightAir tempDewpointWater temp
2015-Aug-04 09:31N 28°09' W 015°24'0 0.0
2015-Aug-04 08:31N 28°09' W 015°24'0 0.0
2015-Aug-04 07:31N 28°09' W 015°24'0 0.0
2015-Aug-04 06:31N 28°09' W 015°24'0 0.0
2015-Aug-04 05:31N 28°09' W 015°24'0 0.0
2015-Aug-04 04:31N 28°09' W 015°24'0 0.0
2015-Aug-04 03:31N 28°09' W 015°24'0 0.0
2015-Aug-04 02:22N 28°09' W 015°24'1 1.8
2015-Aug-04 01:33N 28°07' W 015°24'1212.1
2015-Aug-04 00:33N 28°16' W 015°34'1818.0
2015-Aug-03 23:33N 28°22' W 015°53'2017.6
2015-Aug-03 22:26N 28°29' W 016°14'1 0.5
2015-Aug-03 21:21N 28°29' W 016°15'0 0.0
2015-Aug-03 19:30N 28°29' W 016°15'0 0.0
2015-Aug-03 17:33N 28°29' W 016°15'2 2.5
2015-Aug-03 16:33N 28°28' W 016°12'1919.1
2015-Aug-03 15:33N 28°21' W 015°52'1919.0
2015-Aug-03 14:33N 28°15' W 015°32'8 8.3
2015-Aug-03 13:33N 28°09' W 015°25'0 0.0
2015-Aug-03 12:33N 28°09' W 015°25'0 0.0
2015-Aug-03 11:33N 28°09' W 015°25'0 0.0
2015-Aug-03 10:33N 28°09' W 015°25'0 0.0
2015-Aug-03 09:33N 28°09' W 015°25'0 0.3
2015-Aug-03 08:33N 28°09' W 015°25'1110.5
2015-Aug-03 07:33N 28°14' W 015°15'1918.7
2015-Aug-03 06:33N 28°28' W 014°60'1918.9
2015-Aug-03 05:33N 28°41' W 014°44'2018.7
2015-Aug-03 04:28N 28°55' W 014°28'1918.6
2015-Aug-03 03:26N 29°08' W 014°12'1718.9
2015-Aug-03 02:33N 29°20' W 013°58'2118.5
2015-Aug-03 01:25N 29°35' W 013°41'249370.7
2015-Aug-01 14:10N 31°39' E 034°32'0 0.0
2015-Aug-01 08:27N 31°39' E 034°32'1790458.4
2015-Aug-01 04:33N 37°16' W 000°60'1818.2
2015-Aug-01 03:33N 37°28' W 000°43'1818.1
2015-Aug-01 02:33N 37°41' W 000°28'1818.4
2015-Aug-01 01:33N 37°57' W 000°15'6218.2
2015-Jul-31 22:09N 38°49' E 000°27'6417.9
2015-Jul-31 18:33N 39°46' E 001°06'1817.8
2015-Jul-31 17:33N 40°01' E 001°18'169354.5
2015-Jul-30 10:30N 31°39' E 034°32'0 0.0
2015-Jul-30 09:33N 31°39' E 034°32'0 0.0
2015-Jul-30 08:33N 31°39' E 034°32'17528985.1
2015-Jul-30 08:22N 37°57' W 000°11'1417.7
2015-Jul-30 07:33N 37°45' W 000°21'17601266954.6
2015-Jul-30 07:33N 31°39' E 034°32'0 0.0
2015-Jul-30 06:34N 31°39' E 034°32'1770796598.2
2015-Jul-30 06:33N 37°31' W 000°35'1817.9
2015-Jul-30 05:33N 37°19' W 000°52'1783377660.0
2015-Jul-30 05:33N 31°39' E 034°32'0 0.0
2015-Jul-30 00:25N 31°39' E 034°32'0 0.0
2015-Jul-29 23:34N 31°39' E 034°32'0 0.0
2015-Jul-29 22:10N 31°39' E 034°32'0 0.0
2015-Jul-29 21:33N 31°39' E 034°32'0 0.0
2015-Jul-29 20:25N 31°39' E 034°32'0 0.0
2015-Jul-29 19:31N 31°39' E 034°32'0 0.0
2015-Jul-29 18:33N 31°39' E 034°32'0 0.0
2015-Jul-29 17:22N 31°39' E 034°32'0 0.0
2015-Jul-29 13:18N 31°39' E 034°32'0 0.0
2015-Jul-29 12:33N 31°39' E 034°32'0 0.0
2015-Jul-29 11:26N 31°39' E 034°32'0 0.0
2015-Jul-28 23:34N 31°39' E 034°32'0 0.0
2015-Jul-28 22:33N 31°39' E 034°32'0 0.0
2015-Jul-28 17:28N 31°39' E 034°32'0 0.0
2015-Jul-28 16:14N 31°39' E 034°32'0 0.0
2015-Jul-28 15:33N 31°39' E 034°32'0 0.0
2015-Jul-28 14:33N 31°39' E 034°32'0 0.0
2015-Jul-28 13:13N 31°39' E 034°32'24453338.8
2015-Jul-28 12:29N 30°45' W 013°05'4017.5
2015-Jul-28 10:12N 30°18' W 013°40'1217.3
2015-Jul-28 09:29N 30°10' W 013°51'1617.0
2015-Jul-28 08:33N 29°60' W 014°05'1716.7
2015-Jul-28 07:33N 29°49' W 014°20'1716.7
2015-Jul-28 06:33N 29°39' W 014°35'1716.8
2015-Jul-28 05:33N 29°28' W 014°49'1716.9
2015-Jul-28 04:31N 29°16' W 015°04'1617.1
2015-Jul-28 03:33N 29°05' W 015°19'1817.5
2015-Jul-28 02:33N 28°54' W 015°34'1817.6
2015-Jul-28 01:32N 28°42' W 015°49'1717.3
2015-Jul-28 00:33N 28°32' W 016°04'9 9.3
2015-Jul-27 23:32N 28°29' W 016°15'0 0.0
2015-Jul-27 22:32N 28°29' W 016°15'0 0.0
2015-Jul-27 21:31N 28°29' W 016°15'0 0.0
2015-Jul-27 20:33N 28°29' W 016°15'0 0.0
2015-Jul-27 19:27N 28°29' W 016°15'0 0.0
2015-Jul-27 18:32N 28°29' W 016°15'0 0.0
2015-Jul-27 17:31N 28°29' W 016°15'0 0.4
2015-Jul-27 16:33N 28°29' W 016°14'26438526.7
2015-Jul-27 16:15N 31°39' E 034°32'26303811.4
2015-Jul-27 15:33N 28°23' W 015°57'263048551.4
2015-Jul-27 15:30N 31°39' E 034°32'26152779.1
2015-Jul-27 14:33N 28°17' W 015°37'1515.1
2015-Jul-27 13:33N 28°08' W 015°23'2 1.9
2015-Jul-27 12:33N 28°09' W 015°25'0 0.0
2015-Jul-27 11:32N 28°09' W 015°25'21314.2
2015-Jul-26 20:28N 30°36' W 012°28'1719.0
2015-Jul-26 19:33N 30°49' W 012°13'2399798.8
2015-Jul-26 16:33N 31°39' E 034°32'0 0.0
2015-Jul-26 15:30N 31°39' E 034°32'2237375.6
2015-Jul-26 09:33N 33°01' W 009°34'38917.5
2015-Jul-25 11:18N 36°35' W 002°59'1216.8
2015-Jul-25 10:33N 36°32' W 002°44'18759108.5
2015-Jul-25 10:21N 31°39' E 034°32'  

Dump ship's entire track history